Řízení letového provozu České republiky  
Aktualizace dat:  30.03.2015 22:55:21 UTC English version
   METEO Zobrazení stránky:  30.03.2015 22:57:23 UTC  
vysvětlivky
METAR EDDB 302250Z 27014KT CAVOK 03/M01 Q1004 TEMPO 28020G30KT=
METAR EDDC 302250Z 25011KT 220V280 9999 FEW044 BKN250 04/M01 Q1007=
METAR EDDE 302250Z 22011KT CAVOK 03/M01 Q1007=
METAR EDDF 302250Z 21009KT 9999 -RA FEW015 BKN039 OVC060 06/M00 Q1009 NOSIG=
METAR EDDM 302250Z 23007KT 9999 FEW046 BKN110 04/01 Q1012 NOSIG=
METAR EDDN 302250Z 21004KT 160V260 CAVOK 03/M01 Q1010=
METAR EDDP 302250Z 24017KT CAVOK 03/00 Q1006 NOSIG=
METAR EDDT 302250Z 26012KT CAVOK 03/M01 Q1004=
METAR EDQM 301750Z 27014KT 9999 BKN030 02/M03 Q1007=
METAR EPBY 302230Z 24013KT CAVOK 05/03 Q0997 =
METAR EPGD 302230Z 27017G28KT 9999 BKN021 05/02 Q0992 =
METAR EPKK 302230Z 26020KT 9999 SCT033 SCT060 05/M01 Q1004 =
METAR EPKT 302230Z 27019KT 9999 FEW023 BKN033 04/M01 Q1004 =
METAR EPLL 302230Z 27014KT 9999 BKN023 05/02 Q1000 =
METAR EPPO 302230Z 27019KT 9999 -SHRA FEW015CB BKN023 05/00 Q1000 =
METAR EPRZ 302230Z 27014KT 9999 BKN026 05/02 Q1002 =
METAR EPWA 302230Z 27013KT 230V290 9999 -SHRA FEW016CB SCT048 05/03 Q0998 NOSIG=
METAR EPWR 302230Z 29016KT CAVOK 05/M00 Q1005 =
METAR LHBP 302230Z 28004KT CAVOK 05/M01 Q1009 NOSIG=
METAR LHSM NIL
METAR LKCV 302200Z 27014KT CAVOK 04/M01 Q1009 NOSIG=
METAR LKKB 302200Z 24009KT CAVOK 03/M02 Q1008=
METAR LKKU NIL
METAR LKKV 302100Z 25008KT 220V280 CAVOK 01/M03 Q1008 RMK REG QNH 1003=
METAR LKLN 302200Z AUTO 24003KT 9999 FEW026 02/M01 Q1011=
METAR LKMT 302230Z 21011KT 9999 FEW025 03/00 Q1007 NOSIG RMK REG QNH 1003=
METAR LKNA 302200Z 28018KT 9999 FEW040 03/M00 Q1008=
METAR LKPD 302200Z 27015KT 9999 SCT047 SCT080 04/M02 Q1008=
METAR LKPR 302230Z 23013KT CAVOK 02/M02 Q1008 NOSIG RMK REG QNH 1003=
METAR LKTB 302230Z 25008KT 9999 FEW037 SCT045 03/M01 Q1008 NOSIG RMK REG QNH 1003=
METAR LKVO NIL
METAR LOWI 302220Z AUTO VRB01KT 9999 FEW024 SCT070 BKN110 05/04 Q1014=
METAR LOWL 302220Z AUTO 28013KT 9999 FEW070 OVC090 05/00 Q1013=
METAR LOWS 302220Z AUTO 36006KT 9999 FEW040 SCT070 BKN090 05/03 Q1014=
METAR LOWW 302220Z 28016KT 9999 FEW040 BKN110 06/01 Q1010 NOSIG=
METAR LZIB 302230Z 29007KT 260V320 CAVOK 05/01 Q1010=
METAR LZKZ 302230Z 29006KT 250V320 CAVOK 02/M01 Q1005=
METAR LZPP 302230Z AUTO 28013KT 250V310 9999 NCD 04/M00 Q1009=
METAR LZSL 302230Z 18003KT 9999 FEW037 SCT051 04/M01 Q1007=
METAR LZTT 302230Z 26012KT 9999 -SN BKN040 02/M02 Q1003=
METAR LZZI 302230Z 23007KT 9999 -RA BKN029 04/00 Q1007=